Seaspan Raven — CFN6643 — position and weather

sailwx.info

Track history (hours):
 
Tides and Currents Weather Stations Pressure Air Temp Water Temp Dewpoint Dewpoint Depression Visibility Wind Speed Wind Dir Waves Ship Positions

Seaspan Raven

Last reported at 2018-Jun-23 07:22 UTC. Time now 2018-Jun-23 07:56 UTC.
Position N 49°01' W 123°09'.

Length 26 m; draft 4.5 m.

Type: Tug. MMSI: 316018851.

Date/timePositionNaut miles runAvg speedWind from/ knotsBaromVisibWave heightAir tempDewpointWater temp
2018-Jun-23 07:22N 49°01' W 123°09'0 0.0
2018-Jun-23 06:59N 49°01' W 123°09'0 0.0
2018-Jun-23 06:29N 49°01' W 123°09'0 0.0
2018-Jun-23 05:51N 49°01' W 123°09'0 0.0
2018-Jun-23 05:25N 49°01' W 123°09'0 0.0
2018-Jun-23 05:00N 49°01' W 123°09'0 0.0
2018-Jun-23 04:29N 49°01' W 123°09'0 0.0
2018-Jun-23 03:28N 49°01' W 123°09'3 6.0
2018-Jun-23 02:59N 48°59' W 123°11'611.2
2018-Jun-23 02:28N 48°54' W 123°16'4 9.5
2018-Jun-23 02:00N 48°51' W 123°21'5 9.9
2018-Jun-23 01:30N 48°46' W 123°21'510.2
2018-Jun-23 01:01N 48°41' W 123°21'5 9.2
2018-Jun-23 00:30N 48°37' W 123°20'5 9.9
2018-Jun-23 00:00N 48°32' W 123°18'510.1
2018-Jun-22 23:30N 48°27' W 123°15'4 8.8
2018-Jun-22 23:01N 48°23' W 123°18'1 0.2
2018-Jun-22 19:11N 48°23' W 123°17'2 9.3
2018-Jun-22 19:00N 48°25' W 123°17'5 9.6
2018-Jun-22 18:31N 48°30' W 123°17'611.0
2018-Jun-22 18:00N 48°35' W 123°19'610.9
2018-Jun-22 17:29N 48°41' W 123°21'711.8
2018-Jun-22 16:54N 48°48' W 123°21'15 8.4
2018-Jun-22 15:04N 49°01' W 123°09'0 1.1
2018-Jun-22 15:00N 49°01' W 123°09'0 0.2
2018-Jun-22 14:10N 49°01' W 123°09'0 0.2
2018-Jun-22 13:50N 49°01' W 123°09'0 0.0
2018-Jun-22 05:25N 49°01' W 123°09'0 0.3
2018-Jun-22 04:15N 49°01' W 123°09'0 0.0
2018-Jun-22 03:47N 49°01' W 123°09'0 0.0
2018-Jun-22 03:26N 49°01' W 123°09'0 0.0
2018-Jun-22 02:39N 49°01' W 123°09'0 0.0
2018-Jun-22 02:29N 49°01' W 123°09'0 0.0
2018-Jun-22 01:47N 49°01' W 123°09'0 0.0
2018-Jun-22 01:29N 49°01' W 123°09'0 0.0
2018-Jun-22 01:00N 49°01' W 123°09'0 0.1
2018-Jun-21 22:03N 49°01' W 123°09'1 0.6
2018-Jun-21 20:29N 49°01' W 123°10'0 0.2
2018-Jun-21 19:56N 49°01' W 123°10'0 0.0
2018-Jun-21 19:30N 49°01' W 123°10'0 0.0
2018-Jun-21 19:00N 49°01' W 123°10'1 2.1
2018-Jun-21 18:27N 49°01' W 123°09'0 0.0
2018-Jun-21 17:57N 49°01' W 123°09'2 3.4
2018-Jun-21 17:23N 49°01' W 123°12'410.5
2018-Jun-21 17:00N 49°03' W 123°17'510.2
2018-Jun-21 16:29N 49°08' W 123°19'612.0
2018-Jun-21 16:00N 49°13' W 123°18'510.4
2018-Jun-21 15:30N 49°18' W 123°14'510.8
2018-Jun-21 15:00N 49°18' W 123°06'3 5.9
2018-Jun-21 14:30N 49°18' W 123°02'3 6.2
2018-Jun-21 14:01N 49°19' W 123°06'0 0.0
2018-Jun-21 13:30N 49°19' W 123°06'0 0.0
2018-Jun-21 13:00N 49°19' W 123°06'0 0.0
2018-Jun-21 12:30N 49°19' W 123°06'0 0.0
2018-Jun-21 12:00N 49°19' W 123°06'0 0.0
2018-Jun-21 11:30N 49°19' W 123°06'0 0.0
2018-Jun-21 11:00N 49°19' W 123°06'0 0.0
2018-Jun-21 10:30N 49°19' W 123°06'0 0.0
2018-Jun-21 10:00N 49°19' W 123°06'0 0.0
2018-Jun-21 09:30N 49°19' W 123°06'0 0.0
2018-Jun-21 09:00N 49°19' W 123°06'0 0.0
2018-Jun-21 08:30N 49°19' W 123°06'0 0.0
2018-Jun-21 08:00N 49°19' W 123°06'0 0.0
2018-Jun-21 07:30N 49°19' W 123°06'0 0.0
2018-Jun-21 07:00N 49°19' W 123°06'0 0.0
2018-Jun-21 06:30N 49°19' W 123°06'0 0.0
2018-Jun-21 06:00N 49°19' W 123°06'0 0.0
2018-Jun-21 05:30N 49°19' W 123°06'0 0.0
2018-Jun-21 05:00N 49°19' W 123°06'0 0.0
2018-Jun-21 04:30N 49°19' W 123°06'0 0.0
2018-Jun-21 04:00N 49°19' W 123°06'0 0.0
2018-Jun-21 03:30N 49°19' W 123°06'0 0.0
2018-Jun-21 03:00N 49°19' W 123°06'0 0.0
2018-Jun-21 02:30N 49°19' W 123°06'0 0.0
2018-Jun-21 02:00N 49°19' W 123°06'2 3.1
2018-Jun-21 01:30N 49°18' W 123°04'2 3.0
2018-Jun-21 01:00N 49°18' W 123°02'0 0.4
2018-Jun-21 00:30N 49°18' W 123°02'0 0.4
2018-Jun-21 00:01N 49°18' W 123°02'2 4.9
2018-Jun-20 23:30N 49°18' W 123°06'1 1.2
2018-Jun-20 23:00N 49°19' W 123°06'0 0.0
2018-Jun-20 22:30N 49°19' W 123°06'2 3.7
2018-Jun-20 22:00N 49°17' W 123°04'0 0.1
2018-Jun-20 21:26N 49°17' W 123°04'0 0.3
2018-Jun-20 21:00N 49°17' W 123°05'2 3.5
2018-Jun-20 20:30N 49°18' W 123°07'0 0.9
2018-Jun-20 20:00N 49°18' W 123°06'1 1.8
2018-Jun-20 19:30N 49°18' W 123°05'0 0.0
2018-Jun-20 19:00N 49°18' W 123°05'0 0.0
2018-Jun-20 18:30N 49°18' W 123°05'0 0.0
2018-Jun-20 17:55N 49°18' W 123°05'0 0.0
2018-Jun-20 17:30N 49°18' W 123°05'1 1.8
2018-Jun-20 17:00N 49°18' W 123°03'0 0.4
2018-Jun-20 16:30N 49°18' W 123°04'0 0.2
2018-Jun-20 16:00N 49°18' W 123°04'0 0.3
2018-Jun-20 15:30N 49°18' W 123°04'1 2.5
2018-Jun-20 15:00N 49°18' W 123°05'0 0.6
2018-Jun-20 14:30N 49°17' W 123°06'0 0.0
2018-Jun-20 14:01N 49°17' W 123°06'0 0.0
2018-Jun-20 13:30N 49°17' W 123°06'0 0.1
2018-Jun-20 13:00N 49°17' W 123°06'1 2.2
2018-Jun-20 12:31N 49°18' W 123°06'0 0.6
2018-Jun-20 12:00N 49°19' W 123°06'0 0.0
2018-Jun-20 11:30N 49°19' W 123°06'0 0.0
2018-Jun-20 11:00N 49°19' W 123°06'0 0.0
2018-Jun-20 10:30N 49°19' W 123°06'2 3.7
2018-Jun-20 10:00N 49°17' W 123°04'1 2.9
2018-Jun-20 09:30N 49°18' W 123°06'0 0.8
2018-Jun-20 09:00N 49°19' W 123°06'0 0.0
2018-Jun-20 08:30N 49°19' W 123°06'0 0.0
2018-Jun-20 08:00N 49°19' W 123°06'0 0.0
2018-Jun-20 07:30N 49°19' W 123°06'1 2.8
2018-Jun-20 07:00N 49°18' W 123°04'3 6.7
2018-Jun-20 06:30N 49°18' W 122°59'1 1.7
2018-Jun-20 06:00N 49°17' W 122°58'1 1.5
2018-Jun-20 05:30N 49°18' W 122°59'5 9.5
2018-Jun-20 05:00N 49°19' W 123°06'0 0.0
2018-Jun-20 04:30N 49°19' W 123°06'0 0.0
2018-Jun-20 04:00N 49°19' W 123°06'0 0.0
2018-Jun-20 03:30N 49°19' W 123°06'0 0.0
2018-Jun-20 03:00N 49°19' W 123°06'0 0.0
2018-Jun-20 02:30N 49°19' W 123°06'0 0.0
2018-Jun-20 02:00N 49°19' W 123°06'0 0.0
2018-Jun-20 01:30N 49°19' W 123°06'0 0.0
2018-Jun-20 01:00N 49°19' W 123°06'0 0.0
2018-Jun-20 00:30N 49°19' W 123°06'0 0.0
2018-Jun-20 00:00N 49°19' W 123°06'0 0.0
2018-Jun-19 23:30N 49°19' W 123°06'0 0.0
2018-Jun-19 23:00N 49°19' W 123°06'0 0.0
2018-Jun-19 22:30N 49°19' W 123°06'0 0.0
2018-Jun-19 22:00N 49°19' W 123°06'0 0.2
2018-Jun-19 21:30N 49°19' W 123°06'0 0.4
2018-Jun-19 21:00N 49°19' W 123°06'0 0.0
2018-Jun-19 20:30N 49°19' W 123°06'0 0.0
2018-Jun-19 20:00N 49°19' W 123°06'0 0.0
2018-Jun-19 19:30N 49°19' W 123°06'0 0.0
2018-Jun-19 19:00N 49°19' W 123°06'0 0.0
2018-Jun-19 18:30N 49°19' W 123°06'0 0.0
2018-Jun-19 18:00N 49°19' W 123°06'0 0.0
2018-Jun-19 17:28N 49°19' W 123°06'0 0.0
2018-Jun-19 16:59N 49°19' W 123°06'0 0.0
2018-Jun-19 16:30N 49°19' W 123°06'0 0.0
2018-Jun-19 16:00N 49°19' W 123°06'0 0.0
2018-Jun-19 15:30N 49°19' W 123°06'0 0.0
2018-Jun-19 15:00N 49°19' W 123°06'0 0.0
2018-Jun-19 14:30N 49°19' W 123°06'0 0.0
2018-Jun-19 13:59N 49°19' W 123°06'0 0.0
2018-Jun-19 13:30N 49°19' W 123°06'0 0.0
2018-Jun-19 12:59N 49°19' W 123°06'1 1.6
2018-Jun-19 12:30N 49°19' W 123°08'0 0.5
2018-Jun-19 12:00N 49°19' W 123°07'1 1.0
2018-Jun-19 11:30N 49°19' W 123°06'0 0.0
2018-Jun-19 11:00N 49°19' W 123°06'0 0.0
2018-Jun-19 10:30N 49°19' W 123°06'0 0.0
2018-Jun-19 10:00N 49°19' W 123°06'0 0.0
2018-Jun-19 09:30N 49°19' W 123°06'0 0.0
2018-Jun-19 09:00N 49°19' W 123°06'1 1.9
2018-Jun-19 08:30N 49°18' W 123°05'2 4.4
2018-Jun-19 08:00N 49°18' W 123°02'0 0.1
2018-Jun-19 07:30N 49°18' W 123°02'0 0.8
2018-Jun-19 07:01N 49°18' W 123°02'1 2.3
2018-Jun-19 06:30N 49°18' W 123°04'1 1.4
2018-Jun-19 06:00N 49°19' W 123°05'0 0.1
2018-Jun-19 05:30N 49°19' W 123°05'0 0.0
2018-Jun-19 05:00N 49°19' W 123°05'0 0.0
2018-Jun-19 04:30N 49°19' W 123°05'0 0.0
2018-Jun-19 04:00N 49°19' W 123°05'0 0.0
2018-Jun-19 03:30N 49°19' W 123°05'1 1.5
2018-Jun-19 03:00N 49°19' W 123°06'0 0.6
2018-Jun-19 02:30N 49°19' W 123°06'0 0.0
2018-Jun-19 02:00N 49°19' W 123°06'2 4.0
2018-Jun-19 01:30N 49°18' W 123°03'0 0.5
2018-Jun-19 01:00N 49°18' W 123°04'1 1.4
2018-Jun-19 00:30N 49°18' W 123°03'0 0.6
2018-Jun-19 00:00N 49°18' W 123°02'1 0.2
2018-Jun-18 20:48N 49°18' W 123°01'2 5.1
2018-Jun-18 20:30N 49°18' W 123°04'1 1.1
2018-Jun-18 20:00N 49°18' W 123°03'2 3.9
2018-Jun-18 19:31N 49°18' W 123°06'1 0.3
2018-Jun-18 16:52N 49°18' W 123°07'1 3.1
2018-Jun-18 16:30N 49°19' W 123°06'0 0.0
2018-Jun-18 16:00N 49°19' W 123°06'10 8.3
2018-Jun-18 14:51N 49°13' W 123°18'412.4
2018-Jun-18 14:30N 49°09' W 123°19'611.7
2018-Jun-18 14:00N 49°03' W 123°17'5 6.7
2018-Jun-18 13:12N 49°01' W 123°09'0 0.0
2018-Jun-18 13:00N 49°01' W 123°09'0 0.0
2018-Jun-18 12:30N 49°01' W 123°09'0 0.2
2018-Jun-18 12:00N 49°01' W 123°09'1 1.4
2018-Jun-18 11:30N 49°00' W 123°10'2 0.6
2018-Jun-18 09:09N 49°01' W 123°09'0 0.0
2018-Jun-18 04:07N 49°01' W 123°09'0 0.0
2018-Jun-18 00:03N 49°01' W 123°09'0 0.0
2018-Jun-17 23:10N 49°01' W 123°09'0 0.0
2018-Jun-17 23:00N 49°01' W 123°09'0 0.0
2018-Jun-17 22:08N 49°01' W 123°09'0 0.0
2018-Jun-17 21:53N 49°01' W 123°09'0 0.0
2018-Jun-17 20:53N 49°01' W 123°09'0 0.9
2018-Jun-17 20:21N 49°01' W 123°09'3 9.5
2018-Jun-17 20:00N 48°58' W 123°08'6 9.8
2018-Jun-17 19:25N 48°53' W 123°03'6 9.1
2018-Jun-17 18:46N 48°48' W 122°60'2 7.1
2018-Jun-17 18:25N 48°46' W 123°02'4 7.6
2018-Jun-17 17:57N 48°44' W 123°07'4 8.7
2018-Jun-17 17:30N 48°43' W 123°12'3 6.4
2018-Jun-17 17:00N 48°40' W 123°15'5 9.2
2018-Jun-17 16:30N 48°35' W 123°13'4 8.2
2018-Jun-17 16:00N 48°31' W 123°11'4 8.9
2018-Jun-17 15:30N 48°27' W 123°10'4 8.0
2018-Jun-17 15:00N 48°24' W 123°13'4 8.8
2018-Jun-17 14:30N 48°22' W 123°19'4 7.3
2018-Jun-17 14:00N 48°20' W 123°24'1 2.5
2018-Jun-17 13:30N 48°19' W 123°24'1 1.7
2018-Jun-17 13:00N 48°20' W 123°23'510.8
2018-Jun-17 12:30N 48°24' W 123°18'612.5
2018-Jun-17 12:00N 48°30' W 123°14'612.3
2018-Jun-17 11:30N 48°36' W 123°14'611.9
2018-Jun-17 11:00N 48°42' W 123°16'612.1
2018-Jun-17 10:30N 48°47' W 123°20'510.4
2018-Jun-17 09:59N 48°52' W 123°18'613.2
2018-Jun-17 09:30N 48°57' W 123°13'5 9.5
2018-Jun-17 09:00N 49°01' W 123°09'0 0.0
2018-Jun-17 00:41N 49°01' W 123°09'0 0.0
2018-Jun-17 00:27N 49°01' W 123°09'0 0.0
2018-Jun-16 23:53N 49°01' W 123°09'1 2.6
2018-Jun-16 23:27N 49°01' W 123°10'0 0.0
2018-Jun-16 22:59N 49°01' W 123°10'0 0.0
2018-Jun-16 22:28N 49°01' W 123°10'2 2.4
2018-Jun-16 21:42N 49°01' W 123°13'2 8.2
2018-Jun-16 21:30N 49°01' W 123°10'1 1.0
2018-Jun-16 20:47N 49°01' W 123°09'1 2.3
2018-Jun-16 20:29N 49°01' W 123°10'0 0.1
2018-Jun-16 20:00N 49°01' W 123°10'1 1.3
2018-Jun-16 19:30N 49°01' W 123°09'0 0.0
2018-Jun-16 19:00N 49°01' W 123°09'0 0.4
2018-Jun-16 18:25N 49°01' W 123°09'1 0.6
2018-Jun-16 17:32N 49°01' W 123°09'0 0.0
2018-Jun-16 17:27N 49°01' W 123°09'0 0.0
2018-Jun-16 17:00N 49°01' W 123°09'0 0.0
2018-Jun-16 14:27N 49°01' W 123°09'0 0.7
2018-Jun-16 13:57N 49°01' W 123°09'0 0.1
2018-Jun-16 13:30N 49°01' W 123°09'1 3.0
2018-Jun-16 13:00N 48°60' W 123°09'2 0.5
2018-Jun-16 09:28N 49°01' W 123°09'3 5.8
2018-Jun-16 09:00N 48°59' W 123°09'5 7.7
2018-Jun-16 08:23N 48°55' W 123°05'6 8.7
2018-Jun-16 07:44N 48°50' W 123°00'4 8.4
2018-Jun-16 07:15N 48°46' W 123°02'3 9.6
2018-Jun-16 06:57N 48°44' W 123°06'410.0
2018-Jun-16 06:30N 48°42' W 123°12'4 8.6
2018-Jun-16 06:00N 48°39' W 123°14'510.4
2018-Jun-16 05:30N 48°33' W 123°14'510.2
2018-Jun-16 05:00N 48°28' W 123°15'5 9.4
2018-Jun-16 04:30N 48°24' W 123°17'1 0.1
2018-Jun-15 17:28N 48°24' W 123°18'612.4
2018-Jun-15 17:00N 48°29' W 123°14'714.1
2018-Jun-15 16:31N 48°36' W 123°14'712.9
2018-Jun-15 16:00N 48°42' W 123°13'713.9
2018-Jun-15 15:30N 48°46' W 123°04'611.0
2018-Jun-15 14:56N 48°52' W 123°03'612.7
2018-Jun-15 14:30N 48°57' W 123°07'5 9.2
2018-Jun-15 14:00N 49°01' W 123°09'0 0.0
2018-Jun-15 13:30N 49°01' W 123°09'0 0.2
2018-Jun-15 12:51N 49°01' W 123°09'0 0.7
2018-Jun-15 12:27N 49°01' W 123°09'0 1.1
2018-Jun-15 12:00N 49°01' W 123°09'1 0.8
2018-Jun-15 10:55N 49°01' W 123°09'0 0.0
2018-Jun-15 10:29N 49°01' W 123°09'0 0.0
2018-Jun-15 09:23N 49°01' W 123°09'0 0.0
2018-Jun-15 08:58N 49°01' W 123°09'1 3.1
2018-Jun-15 08:29N 49°00' W 123°10'1 2.0
2018-Jun-15 07:59N 49°01' W 123°09'0 0.1
2018-Jun-15 05:15N 49°01' W 123°09'0 0.0
2018-Jun-15 04:57N 49°01' W 123°09'0 0.0
2018-Jun-15 04:27N 49°01' W 123°09'0 0.0
2018-Jun-15 03:57N 49°01' W 123°09'1 0.5
2018-Jun-15 02:39N 49°01' W 123°09'0 0.3
2018-Jun-15 02:27N 49°01' W 123°09'1 3.0
2018-Jun-15 02:00N 48°60' W 123°10'1 1.9
2018-Jun-15 01:30N 49°00' W 123°10'1 0.8
2018-Jun-15 00:49N 49°01' W 123°09'1 1.6
2018-Jun-15 00:28N 49°01' W 123°09'0 0.0
2018-Jun-14 23:14N 49°01' W 123°09'0 0.0
2018-Jun-14 22:48N 49°01' W 123°09'0 0.0
2018-Jun-14 22:27N 49°01' W 123°09'0 0.0
2018-Jun-14 17:30N 49°01' W 123°09'1 1.3
2018-Jun-14 16:38N 49°01' W 123°10'0 0.0
2018-Jun-14 16:30N 49°01' W 123°10'1 0.8
2018-Jun-14 15:22N 49°01' W 123°09'1 3.4
2018-Jun-14 15:00N 49°00' W 123°10'0 0.7
2018-Jun-14 14:26N 49°01' W 123°10'1 1.3
2018-Jun-14 13:34N 49°01' W 123°09'0 0.0
2018-Jun-14 12:19N 49°01' W 123°09'2 6.5
2018-Jun-14 11:57N 49°01' W 123°12'510.7
2018-Jun-14 11:30N 49°04' W 123°18'510.5
2018-Jun-14 10:59N 49°09' W 123°19'611.0
2018-Jun-14 10:28N 49°15' W 123°18'5 9.8
2018-Jun-14 10:01N 49°18' W 123°14'5 9.1
2018-Jun-14 09:30N 49°19' W 123°07'1 1.4
2018-Jun-14 09:00N 49°19' W 123°06'0 0.0
2018-Jun-14 08:30N 49°19' W 123°06'0 0.0
2018-Jun-14 08:00N 49°19' W 123°06'0 0.0
2018-Jun-14 07:30N 49°19' W 123°06'0 0.0
2018-Jun-14 07:00N 49°19' W 123°06'0 0.0
2018-Jun-14 06:30N 49°19' W 123°06'0 0.0
2018-Jun-14 06:00N 49°19' W 123°06'0 0.0
2018-Jun-14 05:30N 49°19' W 123°06'0 0.0
2018-Jun-14 04:59N 49°19' W 123°06'0 0.0
2018-Jun-14 04:30N 49°19' W 123°06'0 0.0
2018-Jun-14 04:00N 49°19' W 123°06'1 2.4
2018-Jun-14 03:30N 49°18' W 123°05'610.9
2018-Jun-14 03:00N 49°18' W 122°56'2 3.2
2018-Jun-14 02:30N 49°17' W 122°54'1 2.7
2018-Jun-14 02:00N 49°18' W 122°56'1 2.7
2018-Jun-14 01:30N 49°17' W 122°58'0 0.0
2018-Jun-14 01:00N 49°17' W 122°58'0 0.3
2018-Jun-14 00:30N 49°18' W 122°58'1 1.2
2018-Jun-14 00:00N 49°18' W 122°58'0 0.0
2018-Jun-13 23:30N 49°18' W 122°58'5 9.9
2018-Jun-13 23:00N 49°18' W 123°06'1 1.0
2018-Jun-13 22:30N 49°18' W 123°05'2 4.2
2018-Jun-13 22:00N 49°19' W 123°08'1 2.9
2018-Jun-13 21:31N 49°18' W 123°10'2 4.9
2018-Jun-13 21:00N 49°19' W 123°06'0 0.0
2018-Jun-13 20:31N 49°19' W 123°06'0 0.0
2018-Jun-13 20:01N 49°19' W 123°06'0 0.0
2018-Jun-13 19:30N 49°19' W 123°06'0 0.0
2018-Jun-13 19:01N 49°19' W 123°06'0 0.0
2018-Jun-13 18:31N 49°19' W 123°06'0 0.0
2018-Jun-13 18:01N 49°19' W 123°06'0 0.0
2018-Jun-13 17:31N 49°19' W 123°06'1 2.1
2018-Jun-13 17:01N 49°18' W 123°05'1 1.9
2018-Jun-13 16:30N 49°17' W 123°05'0 0.1
2018-Jun-13 16:00N 49°17' W 123°05'2 3.4
2018-Jun-13 15:31N 49°19' W 123°06'0 0.0
2018-Jun-13 15:00N 49°19' W 123°06'0 0.0
2018-Jun-13 14:31N 49°19' W 123°06'0 0.0
2018-Jun-13 14:00N 49°19' W 123°06'0 0.0
2018-Jun-13 13:30N 49°19' W 123°06'0 0.0
2018-Jun-13 13:01N 49°19' W 123°06'0 0.0
2018-Jun-13 12:31N 49°19' W 123°06'0 0.0
2018-Jun-13 12:01N 49°19' W 123°06'0 0.0
2018-Jun-13 11:31N 49°19' W 123°06'0 0.0
2018-Jun-13 11:01N 49°19' W 123°06'0 0.0
2018-Jun-13 10:31N 49°19' W 123°06'0 0.0
2018-Jun-13 10:01N 49°19' W 123°06'0 0.0
2018-Jun-13 09:31N 49°19' W 123°06'2 3.5
2018-Jun-13 09:01N 49°18' W 123°04'3 6.4
2018-Jun-13 08:30N 49°18' W 122°59'1 1.4
2018-Jun-13 08:00N 49°17' W 122°58'0 0.3
2018-Jun-13 07:30N 49°17' W 122°58'  
Track history (hours):
 
Tides and Currents Weather Stations Pressure Air Temp Water Temp Dewpoint Dewpoint Depression Visibility Wind Speed Wind Dir Waves Ship Positions

Seaspan Raven

Last reported at 2018-Jun-23 07:22 UTC. Time now 2018-Jun-23 07:56 UTC.
Position N 49°01' W 123°09'.

Length 26 m; draft 4.5 m.

Type: Tug. MMSI: 316018851.

Date/timePositionNaut miles runAvg speedWind from/ knotsBaromVisibWave heightAir tempDewpointWater temp
2018-Jun-23 07:22N 49°01' W 123°09'0 0.0
2018-Jun-23 06:59N 49°01' W 123°09'0 0.0
2018-Jun-23 06:29N 49°01' W 123°09'0 0.0
2018-Jun-23 05:51N 49°01' W 123°09'0 0.0
2018-Jun-23 05:25N 49°01' W 123°09'0 0.0
2018-Jun-23 05:00N 49°01' W 123°09'0 0.0
2018-Jun-23 04:29N 49°01' W 123°09'0 0.0
2018-Jun-23 03:28N 49°01' W 123°09'3 6.0
2018-Jun-23 02:59N 48°59' W 123°11'611.2
2018-Jun-23 02:28N 48°54' W 123°16'4 9.5
2018-Jun-23 02:00N 48°51' W 123°21'5 9.9
2018-Jun-23 01:30N 48°46' W 123°21'510.2
2018-Jun-23 01:01N 48°41' W 123°21'5 9.2
2018-Jun-23 00:30N 48°37' W 123°20'5 9.9
2018-Jun-23 00:00N 48°32' W 123°18'510.1
2018-Jun-22 23:30N 48°27' W 123°15'4 8.8
2018-Jun-22 23:01N 48°23' W 123°18'1 0.2
2018-Jun-22 19:11N 48°23' W 123°17'2 9.3
2018-Jun-22 19:00N 48°25' W 123°17'5 9.6
2018-Jun-22 18:31N 48°30' W 123°17'611.0
2018-Jun-22 18:00N 48°35' W 123°19'610.9
2018-Jun-22 17:29N 48°41' W 123°21'711.8
2018-Jun-22 16:54N 48°48' W 123°21'15 8.4
2018-Jun-22 15:04N 49°01' W 123°09'0 1.1
2018-Jun-22 15:00N 49°01' W 123°09'0 0.2
2018-Jun-22 14:10N 49°01' W 123°09'0 0.2
2018-Jun-22 13:50N 49°01' W 123°09'0 0.0
2018-Jun-22 05:25N 49°01' W 123°09'0 0.3
2018-Jun-22 04:15N 49°01' W 123°09'0 0.0
2018-Jun-22 03:47N 49°01' W 123°09'0 0.0
2018-Jun-22 03:26N 49°01' W 123°09'0 0.0
2018-Jun-22 02:39N 49°01' W 123°09'0 0.0
2018-Jun-22 02:29N 49°01' W 123°09'0 0.0
2018-Jun-22 01:47N 49°01' W 123°09'0 0.0
2018-Jun-22 01:29N 49°01' W 123°09'0 0.0
2018-Jun-22 01:00N 49°01' W 123°09'0 0.1
2018-Jun-21 22:03N 49°01' W 123°09'1 0.6
2018-Jun-21 20:29N 49°01' W 123°10'0 0.2
2018-Jun-21 19:56N 49°01' W 123°10'0 0.0
2018-Jun-21 19:30N 49°01' W 123°10'0 0.0
2018-Jun-21 19:00N 49°01' W 123°10'1 2.1
2018-Jun-21 18:27N 49°01' W 123°09'0 0.0
2018-Jun-21 17:57N 49°01' W 123°09'2 3.4
2018-Jun-21 17:23N 49°01' W 123°12'410.5
2018-Jun-21 17:00N 49°03' W 123°17'510.2
2018-Jun-21 16:29N 49°08' W 123°19'612.0
2018-Jun-21 16:00N 49°13' W 123°18'510.4
2018-Jun-21 15:30N 49°18' W 123°14'510.8
2018-Jun-21 15:00N 49°18' W 123°06'3 5.9
2018-Jun-21 14:30N 49°18' W 123°02'3 6.2
2018-Jun-21 14:01N 49°19' W 123°06'0 0.0
2018-Jun-21 13:30N 49°19' W 123°06'0 0.0
2018-Jun-21 13:00N 49°19' W 123°06'0 0.0
2018-Jun-21 12:30N 49°19' W 123°06'0 0.0
2018-Jun-21 12:00N 49°19' W 123°06'0 0.0
2018-Jun-21 11:30N 49°19' W 123°06'0 0.0
2018-Jun-21 11:00N 49°19' W 123°06'0 0.0
2018-Jun-21 10:30N 49°19' W 123°06'0 0.0
2018-Jun-21 10:00N 49°19' W 123°06'0 0.0
2018-Jun-21 09:30N 49°19' W 123°06'0 0.0
2018-Jun-21 09:00N 49°19' W 123°06'0 0.0
2018-Jun-21 08:30N 49°19' W 123°06'0 0.0
2018-Jun-21 08:00N 49°19' W 123°06'0 0.0
2018-Jun-21 07:30N 49°19' W 123°06'0 0.0
2018-Jun-21 07:00N 49°19' W 123°06'0 0.0
2018-Jun-21 06:30N 49°19' W 123°06'0 0.0
2018-Jun-21 06:00N 49°19' W 123°06'0 0.0
2018-Jun-21 05:30N 49°19' W 123°06'0 0.0
2018-Jun-21 05:00N 49°19' W 123°06'0 0.0
2018-Jun-21 04:30N 49°19' W 123°06'0 0.0
2018-Jun-21 04:00N 49°19' W 123°06'0 0.0
2018-Jun-21 03:30N 49°19' W 123°06'0 0.0
2018-Jun-21 03:00N 49°19' W 123°06'0 0.0
2018-Jun-21 02:30N 49°19' W 123°06'0 0.0
2018-Jun-21 02:00N 49°19' W 123°06'2 3.1
2018-Jun-21 01:30N 49°18' W 123°04'2 3.0
2018-Jun-21 01:00N 49°18' W 123°02'0 0.4
2018-Jun-21 00:30N 49°18' W 123°02'0 0.4
2018-Jun-21 00:01N 49°18' W 123°02'2 4.9
2018-Jun-20 23:30N 49°18' W 123°06'1 1.2
2018-Jun-20 23:00N 49°19' W 123°06'0 0.0
2018-Jun-20 22:30N 49°19' W 123°06'2 3.7
2018-Jun-20 22:00N 49°17' W 123°04'0 0.1
2018-Jun-20 21:26N 49°17' W 123°04'0 0.3
2018-Jun-20 21:00N 49°17' W 123°05'2 3.5
2018-Jun-20 20:30N 49°18' W 123°07'0 0.9
2018-Jun-20 20:00N 49°18' W 123°06'1 1.8
2018-Jun-20 19:30N 49°18' W 123°05'0 0.0
2018-Jun-20 19:00N 49°18' W 123°05'0 0.0
2018-Jun-20 18:30N 49°18' W 123°05'0 0.0
2018-Jun-20 17:55N 49°18' W 123°05'0 0.0
2018-Jun-20 17:30N 49°18' W 123°05'1 1.8
2018-Jun-20 17:00N 49°18' W 123°03'0 0.4
2018-Jun-20 16:30N 49°18' W 123°04'0 0.2
2018-Jun-20 16:00N 49°18' W 123°04'0 0.3
2018-Jun-20 15:30N 49°18' W 123°04'1 2.5
2018-Jun-20 15:00N 49°18' W 123°05'0 0.6
2018-Jun-20 14:30N 49°17' W 123°06'0 0.0
2018-Jun-20 14:01N 49°17' W 123°06'0 0.0
2018-Jun-20 13:30N 49°17' W 123°06'0 0.1
2018-Jun-20 13:00N 49°17' W 123°06'1 2.2
2018-Jun-20 12:31N 49°18' W 123°06'0 0.6
2018-Jun-20 12:00N 49°19' W 123°06'0 0.0
2018-Jun-20 11:30N 49°19' W 123°06'0 0.0
2018-Jun-20 11:00N 49°19' W 123°06'0 0.0
2018-Jun-20 10:30N 49°19' W 123°06'2 3.7
2018-Jun-20 10:00N 49°17' W 123°04'1 2.9
2018-Jun-20 09:30N 49°18' W 123°06'0 0.8
2018-Jun-20 09:00N 49°19' W 123°06'0 0.0
2018-Jun-20 08:30N 49°19' W 123°06'0 0.0
2018-Jun-20 08:00N 49°19' W 123°06'0 0.0
2018-Jun-20 07:30N 49°19' W 123°06'1 2.8
2018-Jun-20 07:00N 49°18' W 123°04'3 6.7
2018-Jun-20 06:30N 49°18' W 122°59'1 1.7
2018-Jun-20 06:00N 49°17' W 122°58'1 1.5
2018-Jun-20 05:30N 49°18' W 122°59'5 9.5
2018-Jun-20 05:00N 49°19' W 123°06'0 0.0
2018-Jun-20 04:30N 49°19' W 123°06'0 0.0
2018-Jun-20 04:00N 49°19' W 123°06'0 0.0
2018-Jun-20 03:30N 49°19' W 123°06'0 0.0
2018-Jun-20 03:00N 49°19' W 123°06'0 0.0
2018-Jun-20 02:30N 49°19' W 123°06'0 0.0
2018-Jun-20 02:00N 49°19' W 123°06'0 0.0
2018-Jun-20 01:30N 49°19' W 123°06'0 0.0
2018-Jun-20 01:00N 49°19' W 123°06'0 0.0
2018-Jun-20 00:30N 49°19' W 123°06'0 0.0
2018-Jun-20 00:00N 49°19' W 123°06'0 0.0
2018-Jun-19 23:30N 49°19' W 123°06'0 0.0
2018-Jun-19 23:00N 49°19' W 123°06'0 0.0
2018-Jun-19 22:30N 49°19' W 123°06'0 0.0
2018-Jun-19 22:00N 49°19' W 123°06'0 0.2
2018-Jun-19 21:30N 49°19' W 123°06'0 0.4
2018-Jun-19 21:00N 49°19' W 123°06'0 0.0
2018-Jun-19 20:30N 49°19' W 123°06'0 0.0
2018-Jun-19 20:00N 49°19' W 123°06'0 0.0
2018-Jun-19 19:30N 49°19' W 123°06'0 0.0
2018-Jun-19 19:00N 49°19' W 123°06'0 0.0
2018-Jun-19 18:30N 49°19' W 123°06'0 0.0
2018-Jun-19 18:00N 49°19' W 123°06'0 0.0
2018-Jun-19 17:28N 49°19' W 123°06'0 0.0
2018-Jun-19 16:59N 49°19' W 123°06'0 0.0
2018-Jun-19 16:30N 49°19' W 123°06'0 0.0
2018-Jun-19 16:00N 49°19' W 123°06'0 0.0
2018-Jun-19 15:30N 49°19' W 123°06'0 0.0
2018-Jun-19 15:00N 49°19' W 123°06'0 0.0
2018-Jun-19 14:30N 49°19' W 123°06'0 0.0
2018-Jun-19 13:59N 49°19' W 123°06'0 0.0
2018-Jun-19 13:30N 49°19' W 123°06'0 0.0
2018-Jun-19 12:59N 49°19' W 123°06'1 1.6
2018-Jun-19 12:30N 49°19' W 123°08'0 0.5
2018-Jun-19 12:00N 49°19' W 123°07'1 1.0
2018-Jun-19 11:30N 49°19' W 123°06'0 0.0
2018-Jun-19 11:00N 49°19' W 123°06'0 0.0
2018-Jun-19 10:30N 49°19' W 123°06'0 0.0
2018-Jun-19 10:00N 49°19' W 123°06'0 0.0
2018-Jun-19 09:30N 49°19' W 123°06'0 0.0
2018-Jun-19 09:00N 49°19' W 123°06'1 1.9
2018-Jun-19 08:30N 49°18' W 123°05'2 4.4
2018-Jun-19 08:00N 49°18' W 123°02'0 0.1
2018-Jun-19 07:30N 49°18' W 123°02'0 0.8
2018-Jun-19 07:01N 49°18' W 123°02'1 2.3
2018-Jun-19 06:30N 49°18' W 123°04'1 1.4
2018-Jun-19 06:00N 49°19' W 123°05'0 0.1
2018-Jun-19 05:30N 49°19' W 123°05'0 0.0
2018-Jun-19 05:00N 49°19' W 123°05'0 0.0
2018-Jun-19 04:30N 49°19' W 123°05'0 0.0
2018-Jun-19 04:00N 49°19' W 123°05'0 0.0
2018-Jun-19 03:30N 49°19' W 123°05'1 1.5
2018-Jun-19 03:00N 49°19' W 123°06'0 0.6
2018-Jun-19 02:30N 49°19' W 123°06'0 0.0
2018-Jun-19 02:00N 49°19' W 123°06'2 4.0
2018-Jun-19 01:30N 49°18' W 123°03'0 0.5
2018-Jun-19 01:00N 49°18' W 123°04'1 1.4
2018-Jun-19 00:30N 49°18' W 123°03'0 0.6
2018-Jun-19 00:00N 49°18' W 123°02'1 0.2
2018-Jun-18 20:48N 49°18' W 123°01'2 5.1
2018-Jun-18 20:30N 49°18' W 123°04'1 1.1
2018-Jun-18 20:00N 49°18' W 123°03'2 3.9
2018-Jun-18 19:31N 49°18' W 123°06'1 0.3
2018-Jun-18 16:52N 49°18' W 123°07'1 3.1
2018-Jun-18 16:30N 49°19' W 123°06'0 0.0
2018-Jun-18 16:00N 49°19' W 123°06'10 8.3
2018-Jun-18 14:51N 49°13' W 123°18'412.4
2018-Jun-18 14:30N 49°09' W 123°19'611.7
2018-Jun-18 14:00N 49°03' W 123°17'5 6.7
2018-Jun-18 13:12N 49°01' W 123°09'0 0.0
2018-Jun-18 13:00N 49°01' W 123°09'0 0.0
2018-Jun-18 12:30N 49°01' W 123°09'0 0.2
2018-Jun-18 12:00N 49°01' W 123°09'1 1.4
2018-Jun-18 11:30N 49°00' W 123°10'2 0.6
2018-Jun-18 09:09N 49°01' W 123°09'0 0.0
2018-Jun-18 04:07N 49°01' W 123°09'0 0.0
2018-Jun-18 00:03N 49°01' W 123°09'0 0.0
2018-Jun-17 23:10N 49°01' W 123°09'0 0.0
2018-Jun-17 23:00N 49°01' W 123°09'0 0.0
2018-Jun-17 22:08N 49°01' W 123°09'0 0.0
2018-Jun-17 21:53N 49°01' W 123°09'0 0.0
2018-Jun-17 20:53N 49°01' W 123°09'0 0.9
2018-Jun-17 20:21N 49°01' W 123°09'3 9.5
2018-Jun-17 20:00N 48°58' W 123°08'6 9.8
2018-Jun-17 19:25N 48°53' W 123°03'6 9.1
2018-Jun-17 18:46N 48°48' W 122°60'2 7.1
2018-Jun-17 18:25N 48°46' W 123°02'4 7.6
2018-Jun-17 17:57N 48°44' W 123°07'4 8.7
2018-Jun-17 17:30N 48°43' W 123°12'3 6.4
2018-Jun-17 17:00N 48°40' W 123°15'5 9.2
2018-Jun-17 16:30N 48°35' W 123°13'4 8.2
2018-Jun-17 16:00N 48°31' W 123°11'4 8.9
2018-Jun-17 15:30N 48°27' W 123°10'4 8.0
2018-Jun-17 15:00N 48°24' W 123°13'4 8.8
2018-Jun-17 14:30N 48°22' W 123°19'4 7.3
2018-Jun-17 14:00N 48°20' W 123°24'1 2.5
2018-Jun-17 13:30N 48°19' W 123°24'1 1.7
2018-Jun-17 13:00N 48°20' W 123°23'510.8
2018-Jun-17 12:30N 48°24' W 123°18'612.5
2018-Jun-17 12:00N 48°30' W 123°14'612.3
2018-Jun-17 11:30N 48°36' W 123°14'611.9
2018-Jun-17 11:00N 48°42' W 123°16'612.1
2018-Jun-17 10:30N 48°47' W 123°20'510.4
2018-Jun-17 09:59N 48°52' W 123°18'613.2
2018-Jun-17 09:30N 48°57' W 123°13'5 9.5
2018-Jun-17 09:00N 49°01' W 123°09'0 0.0
2018-Jun-17 00:41N 49°01' W 123°09'0 0.0
2018-Jun-17 00:27N 49°01' W 123°09'0 0.0
2018-Jun-16 23:53N 49°01' W 123°09'1 2.6
2018-Jun-16 23:27N 49°01' W 123°10'0 0.0
2018-Jun-16 22:59N 49°01' W 123°10'0 0.0
2018-Jun-16 22:28N 49°01' W 123°10'2 2.4
2018-Jun-16 21:42N 49°01' W 123°13'2 8.2
2018-Jun-16 21:30N 49°01' W 123°10'1 1.0
2018-Jun-16 20:47N 49°01' W 123°09'1 2.3
2018-Jun-16 20:29N 49°01' W 123°10'0 0.1
2018-Jun-16 20:00N 49°01' W 123°10'1 1.3
2018-Jun-16 19:30N 49°01' W 123°09'0 0.0
2018-Jun-16 19:00N 49°01' W 123°09'0 0.4
2018-Jun-16 18:25N 49°01' W 123°09'1 0.6
2018-Jun-16 17:32N 49°01' W 123°09'0 0.0
2018-Jun-16 17:27N 49°01' W 123°09'0 0.0
2018-Jun-16 17:00N 49°01' W 123°09'0 0.0
2018-Jun-16 14:27N 49°01' W 123°09'0 0.7
2018-Jun-16 13:57N 49°01' W 123°09'0 0.1
2018-Jun-16 13:30N 49°01' W 123°09'1 3.0
2018-Jun-16 13:00N 48°60' W 123°09'2 0.5
2018-Jun-16 09:28N 49°01' W 123°09'3 5.8
2018-Jun-16 09:00N 48°59' W 123°09'5 7.7
2018-Jun-16 08:23N 48°55' W 123°05'6 8.7
2018-Jun-16 07:44N 48°50' W 123°00'4 8.4
2018-Jun-16 07:15N 48°46' W 123°02'3 9.6
2018-Jun-16 06:57N 48°44' W 123°06'410.0
2018-Jun-16 06:30N 48°42' W 123°12'4 8.6
2018-Jun-16 06:00N 48°39' W 123°14'510.4
2018-Jun-16 05:30N 48°33' W 123°14'510.2
2018-Jun-16 05:00N 48°28' W 123°15'5 9.4
2018-Jun-16 04:30N 48°24' W 123°17'1 0.1
2018-Jun-15 17:28N 48°24' W 123°18'612.4
2018-Jun-15 17:00N 48°29' W 123°14'714.1
2018-Jun-15 16:31N 48°36' W 123°14'712.9
2018-Jun-15 16:00N 48°42' W 123°13'713.9
2018-Jun-15 15:30N 48°46' W 123°04'611.0
2018-Jun-15 14:56N 48°52' W 123°03'612.7
2018-Jun-15 14:30N 48°57' W 123°07'5 9.2
2018-Jun-15 14:00N 49°01' W 123°09'0 0.0
2018-Jun-15 13:30N 49°01' W 123°09'0 0.2
2018-Jun-15 12:51N 49°01' W 123°09'0 0.7
2018-Jun-15 12:27N 49°01' W 123°09'0 1.1
2018-Jun-15 12:00N 49°01' W 123°09'1 0.8
2018-Jun-15 10:55N 49°01' W 123°09'0 0.0
2018-Jun-15 10:29N 49°01' W 123°09'0 0.0
2018-Jun-15 09:23N 49°01' W 123°09'0 0.0
2018-Jun-15 08:58N 49°01' W 123°09'1 3.1
2018-Jun-15 08:29N 49°00' W 123°10'1 2.0
2018-Jun-15 07:59N 49°01' W 123°09'0 0.1
2018-Jun-15 05:15N 49°01' W 123°09'0 0.0
2018-Jun-15 04:57N 49°01' W 123°09'0 0.0
2018-Jun-15 04:27N 49°01' W 123°09'0 0.0
2018-Jun-15 03:57N 49°01' W 123°09'1 0.5
2018-Jun-15 02:39N 49°01' W 123°09'0 0.3
2018-Jun-15 02:27N 49°01' W 123°09'1 3.0
2018-Jun-15 02:00N 48°60' W 123°10'1 1.9
2018-Jun-15 01:30N 49°00' W 123°10'1 0.8
2018-Jun-15 00:49N 49°01' W 123°09'1 1.6
2018-Jun-15 00:28N 49°01' W 123°09'0 0.0
2018-Jun-14 23:14N 49°01' W 123°09'0 0.0
2018-Jun-14 22:48N 49°01' W 123°09'0 0.0
2018-Jun-14 22:27N 49°01' W 123°09'0 0.0
2018-Jun-14 17:30N 49°01' W 123°09'1 1.3
2018-Jun-14 16:38N 49°01' W 123°10'0 0.0
2018-Jun-14 16:30N 49°01' W 123°10'1 0.8
2018-Jun-14 15:22N 49°01' W 123°09'1 3.4
2018-Jun-14 15:00N 49°00' W 123°10'0 0.7
2018-Jun-14 14:26N 49°01' W 123°10'1 1.3
2018-Jun-14 13:34N 49°01' W 123°09'0 0.0
2018-Jun-14 12:19N 49°01' W 123°09'2 6.5
2018-Jun-14 11:57N 49°01' W 123°12'510.7
2018-Jun-14 11:30N 49°04' W 123°18'510.5
2018-Jun-14 10:59N 49°09' W 123°19'611.0
2018-Jun-14 10:28N 49°15' W 123°18'5 9.8
2018-Jun-14 10:01N 49°18' W 123°14'5 9.1
2018-Jun-14 09:30N 49°19' W 123°07'1 1.4
2018-Jun-14 09:00N 49°19' W 123°06'0 0.0
2018-Jun-14 08:30N 49°19' W 123°06'0 0.0
2018-Jun-14 08:00N 49°19' W 123°06'0 0.0
2018-Jun-14 07:30N 49°19' W 123°06'0 0.0
2018-Jun-14 07:00N 49°19' W 123°06'0 0.0
2018-Jun-14 06:30N 49°19' W 123°06'0 0.0
2018-Jun-14 06:00N 49°19' W 123°06'0 0.0
2018-Jun-14 05:30N 49°19' W 123°06'0 0.0
2018-Jun-14 04:59N 49°19' W 123°06'0 0.0
2018-Jun-14 04:30N 49°19' W 123°06'0 0.0
2018-Jun-14 04:00N 49°19' W 123°06'1 2.4
2018-Jun-14 03:30N 49°18' W 123°05'610.9
2018-Jun-14 03:00N 49°18' W 122°56'2 3.2
2018-Jun-14 02:30N 49°17' W 122°54'1 2.7
2018-Jun-14 02:00N 49°18' W 122°56'1 2.7
2018-Jun-14 01:30N 49°17' W 122°58'0 0.0
2018-Jun-14 01:00N 49°17' W 122°58'0 0.3
2018-Jun-14 00:30N 49°18' W 122°58'1 1.2
2018-Jun-14 00:00N 49°18' W 122°58'0 0.0
2018-Jun-13 23:30N 49°18' W 122°58'5 9.9
2018-Jun-13 23:00N 49°18' W 123°06'1 1.0
2018-Jun-13 22:30N 49°18' W 123°05'2 4.2
2018-Jun-13 22:00N 49°19' W 123°08'1 2.9
2018-Jun-13 21:31N 49°18' W 123°10'2 4.9
2018-Jun-13 21:00N 49°19' W 123°06'0 0.0
2018-Jun-13 20:31N 49°19' W 123°06'0 0.0
2018-Jun-13 20:01N 49°19' W 123°06'0 0.0
2018-Jun-13 19:30N 49°19' W 123°06'0 0.0
2018-Jun-13 19:01N 49°19' W 123°06'0 0.0
2018-Jun-13 18:31N 49°19' W 123°06'0 0.0
2018-Jun-13 18:01N 49°19' W 123°06'0 0.0
2018-Jun-13 17:31N 49°19' W 123°06'1 2.1
2018-Jun-13 17:01N 49°18' W 123°05'1 1.9
2018-Jun-13 16:30N 49°17' W 123°05'0 0.1
2018-Jun-13 16:00N 49°17' W 123°05'2 3.4
2018-Jun-13 15:31N 49°19' W 123°06'0 0.0
2018-Jun-13 15:00N 49°19' W 123°06'0 0.0
2018-Jun-13 14:31N 49°19' W 123°06'0 0.0
2018-Jun-13 14:00N 49°19' W 123°06'0 0.0
2018-Jun-13 13:30N 49°19' W 123°06'0 0.0
2018-Jun-13 13:01N 49°19' W 123°06'0 0.0
2018-Jun-13 12:31N 49°19' W 123°06'0 0.0
2018-Jun-13 12:01N 49°19' W 123°06'0 0.0
2018-Jun-13 11:31N 49°19' W 123°06'0 0.0
2018-Jun-13 11:01N 49°19' W 123°06'0 0.0
2018-Jun-13 10:31N 49°19' W 123°06'0 0.0
2018-Jun-13 10:01N 49°19' W 123°06'0 0.0
2018-Jun-13 09:31N 49°19' W 123°06'2 3.5
2018-Jun-13 09:01N 49°18' W 123°04'3 6.4
2018-Jun-13 08:30N 49°18' W 122°59'1 1.4
2018-Jun-13 08:00N 49°17' W 122°58'0 0.3
2018-Jun-13 07:30N 49°17' W 122°58'  

Dump ship's entire track history